Terminal Aerodrome Forecast
Issued by NWS

Home | Current Version | Previous Version | Text Only | Print | Product List | Glossary On
Versions: 1 2 3 4 5 6 7 8 9 10 11 12 13 14 15 16 17 18 19 20 21 22 23 24 25 26 27 28 29 30 31 32 33
000
FTAK31 PAFA 261128
TAFAOM
TAF
PAOM 261128Z 2612/2712 29005KT P6SM BKN060 OVC090
     FM261900 21006KT P6SM SCT050 BKN080
     FM270300 21009KT P6SM SCT015 BKN035
     FM271100 18010KT P6SM -RA OVC010=

USA.gov is the U.S. government's official web portal to all federal, state and local government web resources and services.